createdAt,value
2022-08-26T00:00:04.453Z,24.75
2022-08-26T00:02:42.390Z,24.75
2022-08-26T00:05:12.332Z,24.74
2022-08-26T00:07:41.989Z,24.66
2022-08-26T00:10:14.266Z,24.65
2022-08-26T00:12:44.377Z,24.71
2022-08-26T00:15:19.190Z,24.78
2022-08-26T00:17:50.277Z,24.77
2022-08-26T00:20:24.401Z,24.80
2022-08-26T00:22:56.010Z,24.68
2022-08-26T00:25:26.109Z,24.63
2022-08-26T00:27:56.078Z,24.69
2022-08-26T00:30:31.709Z,24.69
2022-08-26T00:33:01.740Z,24.47
2022-08-26T00:35:33.547Z,24.47
2022-08-26T00:38:04.145Z,24.39
2022-08-26T00:40:36.827Z,24.21
2022-08-26T00:43:09.621Z,24.39
2022-08-26T00:45:49.651Z,24.35
2022-08-26T00:48:22.982Z,24.14
2022-08-26T00:50:57.482Z,24.20
2022-08-26T00:53:31.053Z,24.20
2022-08-26T00:56:06.715Z,24.32
2022-08-26T00:58:37.201Z,24.24
2022-08-26T01:01:09.578Z,24.27
2022-08-26T01:03:40.589Z,24.30
2022-08-26T01:06:13.136Z,24.28
2022-08-26T01:08:43.516Z,24.34
2022-08-26T01:11:15.254Z,24.38
2022-08-26T01:13:47.561Z,24.30
2022-08-26T01:16:19.937Z,24.24
2022-08-26T01:18:50.679Z,24.17
2022-08-26T01:21:29.428Z,24.35
2022-08-26T01:24:02.901Z,24.40
2022-08-26T01:26:35.123Z,24.24
2022-08-26T01:29:09.038Z,24.20
2022-08-26T01:31:46.004Z,24.26
2022-08-26T01:34:20.608Z,24.19
2022-08-26T01:36:51.801Z,24.24
2022-08-26T01:39:24.361Z,24.25
2022-08-26T01:41:58.454Z,24.36
2022-08-26T01:44:37.423Z,24.23
2022-08-26T01:47:09.499Z,24.23
2022-08-26T01:49:40.252Z,24.14
2022-08-26T01:52:12.614Z,24.12
2022-08-26T01:54:46.281Z,24.18
2022-08-26T01:57:21.378Z,24.13
2022-08-26T01:59:52.426Z,24.16
2022-08-26T02:02:22.136Z,24.12
2022-08-26T02:05:00.001Z,24.17
2022-08-26T02:07:30.709Z,24.14
2022-08-26T02:10:07.078Z,24.15
2022-08-26T02:12:37.150Z,24.02
2022-08-26T02:15:12.247Z,24.12
2022-08-26T02:17:47.323Z,24.08
2022-08-26T02:20:20.869Z,23.96
2022-08-26T02:22:50.965Z,23.95
2022-08-26T02:25:28.032Z,23.86
2022-08-26T02:27:58.839Z,23.79
2022-08-26T02:30:32.078Z,23.71
2022-08-26T02:33:03.986Z,23.79
2022-08-26T02:35:36.651Z,23.88
2022-08-26T02:38:09.810Z,23.91
2022-08-26T02:40:44.980Z,23.88
2022-08-26T02:43:15.044Z,23.95
2022-08-26T02:45:45.994Z,23.93
2022-08-26T02:48:18.748Z,23.94
2022-08-26T02:50:49.069Z,23.93
2022-08-26T02:53:25.047Z,23.95
2022-08-26T02:55:57.974Z,23.94
2022-08-26T02:58:29.587Z,23.87
2022-08-26T03:00:59.632Z,23.73
2022-08-26T03:03:32.046Z,23.71
2022-08-26T03:06:02.294Z,23.76
2022-08-26T03:08:32.018Z,23.73
2022-08-26T03:11:04.360Z,23.72
2022-08-26T03:13:36.314Z,23.67
2022-08-26T03:16:07.090Z,23.68
2022-08-26T03:18:37.250Z,23.61
2022-08-26T03:21:11.849Z,23.60
2022-08-26T03:23:43.694Z,23.55
2022-08-26T03:26:17.754Z,23.61
2022-08-26T03:28:59.730Z,23.38
2022-08-26T03:31:29.551Z,23.51
2022-08-26T03:33:59.958Z,23.58
2022-08-26T03:36:29.815Z,23.51
2022-08-26T03:38:59.956Z,23.42
2022-08-26T03:41:32.853Z,23.29
2022-08-26T03:44:02.553Z,23.23
2022-08-26T03:46:34.614Z,23.15
2022-08-26T03:49:05.889Z,23.24
2022-08-26T03:51:38.850Z,23.27
2022-08-26T03:54:10.237Z,23.11
2022-08-26T03:56:42.474Z,23.03
2022-08-26T03:59:16.357Z,22.83
2022-08-26T04:01:46.120Z,22.99
2022-08-26T04:04:18.270Z,23.03
2022-08-26T04:06:52.803Z,23.02
2022-08-26T04:09:23.355Z,23.10
2022-08-26T04:11:58.657Z,23.05
2022-08-26T04:14:31.216Z,23.00
2022-08-26T04:17:04.966Z,23.08
2022-08-26T04:19:35.992Z,22.98
2022-08-26T04:22:05.690Z,23.08
2022-08-26T04:24:36.308Z,23.21
2022-08-26T04:27:10.330Z,23.09
2022-08-26T04:29:41.603Z,23.02
2022-08-26T04:32:11.384Z,23.05
2022-08-26T04:34:41.934Z,23.04
2022-08-26T04:37:11.978Z,23.08
2022-08-26T04:39:41.661Z,22.78
2022-08-26T04:42:14.001Z,22.95
2022-08-26T04:44:43.654Z,23.08
2022-08-26T04:47:13.346Z,23.08
2022-08-26T04:49:43.173Z,23.11
2022-08-26T04:52:13.024Z,23.10
2022-08-26T04:54:42.714Z,23.05
2022-08-26T04:57:16.181Z,23.01
2022-08-26T04:59:45.811Z,23.08
2022-08-26T05:02:15.777Z,23.14
2022-08-26T05:04:45.539Z,23.14
2022-08-26T05:07:15.259Z,23.16
2022-08-26T05:09:47.399Z,23.08
2022-08-26T05:12:20.755Z,23.07
2022-08-26T05:14:50.502Z,23.15
2022-08-26T05:17:21.669Z,23.15
2022-08-26T05:19:52.251Z,23.26
2022-08-26T05:22:22.734Z,23.19
2022-08-26T05:24:52.637Z,23.17
2022-08-26T05:27:25.972Z,23.20
2022-08-26T05:30:00.038Z,23.28
2022-08-26T05:32:31.775Z,23.21
2022-08-26T05:35:01.508Z,23.61
2022-08-26T05:37:32.264Z,23.56
2022-08-26T05:40:02.173Z,23.66
2022-08-26T05:42:36.351Z,23.84
2022-08-26T05:45:07.370Z,23.86
2022-08-26T05:47:43.074Z,23.96
2022-08-26T05:50:13.861Z,24.18
2022-08-26T05:52:46.092Z,24.27
2022-08-26T05:55:23.871Z,24.39
2022-08-26T05:57:57.605Z,24.20
2022-08-26T06:00:28.413Z,24.43
2022-08-26T06:02:58.623Z,24.55
2022-08-26T06:05:35.372Z,24.62
2022-08-26T06:08:16.309Z,24.99
2022-08-26T06:10:50.982Z,25.01
2022-08-26T06:13:30.318Z,25.45
2022-08-26T06:16:08.481Z,25.50
2022-08-26T06:18:42.157Z,25.66
2022-08-26T06:21:20.153Z,25.80
2022-08-26T06:24:04.141Z,25.90
2022-08-26T06:26:36.594Z,26.02
2022-08-26T06:29:24.109Z,26.41
2022-08-26T06:31:56.404Z,26.35
2022-08-26T06:34:29.880Z,26.62
2022-08-26T06:37:03.717Z,26.94
2022-08-26T06:39:34.133Z,26.95
2022-08-26T06:42:07.305Z,26.54
2022-08-26T06:44:41.732Z,26.56
2022-08-26T06:47:15.560Z,26.69
2022-08-26T06:49:46.265Z,26.97
2022-08-26T06:52:22.956Z,26.78
2022-08-26T06:54:54.430Z,26.44
2022-08-26T06:57:25.199Z,26.82
2022-08-26T06:59:57.527Z,26.84
2022-08-26T07:02:28.599Z,26.76
2022-08-26T07:04:59.758Z,27.11
2022-08-26T07:07:29.627Z,27.42
2022-08-26T07:09:59.842Z,27.34
2022-08-26T07:12:29.911Z,27.62
2022-08-26T07:15:03.370Z,27.68
2022-08-26T07:17:35.283Z,27.24
2022-08-26T07:20:07.344Z,27.39
2022-08-26T07:22:43.814Z,27.17
2022-08-26T07:25:13.592Z,27.09
2022-08-26T07:27:43.285Z,27.09
2022-08-26T07:30:17.109Z,27.16
2022-08-26T07:32:46.888Z,27.11
2022-08-26T07:35:16.995Z,27.07
2022-08-26T07:37:47.098Z,27.10
2022-08-26T07:40:16.894Z,27.27
2022-08-26T07:42:47.670Z,27.29
2022-08-26T07:45:22.197Z,27.40
2022-08-26T07:47:53.048Z,27.44
2022-08-26T07:50:47.090Z,27.37
2022-08-26T07:53:14.606Z,27.39
2022-08-26T07:55:47.935Z,27.45
2022-08-26T07:58:18.546Z,27.45
2022-08-26T08:00:51.481Z,27.60
2022-08-26T08:03:27.118Z,27.48
2022-08-26T08:05:56.862Z,27.57
2022-08-26T08:08:29.297Z,27.67
2022-08-26T08:10:59.763Z,27.76
2022-08-26T08:13:29.697Z,27.80
2022-08-26T08:16:01.953Z,28.03
2022-08-26T08:18:31.671Z,28.09
2022-08-26T08:21:21.377Z,28.09
2022-08-26T08:23:55.482Z,28.25
2022-08-26T08:26:27.314Z,28.41
2022-08-26T08:28:59.053Z,28.53
2022-08-26T08:34:25.910Z,28.76
2022-08-26T08:36:56.530Z,28.74
2022-08-26T08:39:26.976Z,28.94
2022-08-26T08:42:31.537Z,28.90
2022-08-26T08:45:04.534Z,29.08
2022-08-26T08:47:42.135Z,29.26
2022-08-26T08:50:24.564Z,29.17
2022-08-26T08:53:05.791Z,29.17
2022-08-26T08:55:46.364Z,29.49
2022-08-26T08:58:21.927Z,29.49
2022-08-26T09:01:00.779Z,29.63
2022-08-26T09:03:56.845Z,29.72
2022-08-26T09:06:30.581Z,29.75
2022-08-26T09:09:02.746Z,29.68
2022-08-26T09:11:33.801Z,29.81
2022-08-26T09:14:03.646Z,29.82
2022-08-26T09:16:43.981Z,29.90
2022-08-26T09:19:24.207Z,30.13
2022-08-26T09:21:58.116Z,30.24
2022-08-26T09:24:32.166Z,30.35
2022-08-26T09:27:01.961Z,30.36
2022-08-26T09:29:36.089Z,30.30
2022-08-26T09:32:24.170Z,30.33
2022-08-26T09:35:03.327Z,30.17
2022-08-26T09:37:40.088Z,30.41
2022-08-26T09:40:20.705Z,30.42
2022-08-26T09:43:09.373Z,30.46
2022-08-26T09:45:40.045Z,30.54
2022-08-26T09:48:11.300Z,30.56
2022-08-26T09:50:57.385Z,30.43
2022-08-26T09:53:30.476Z,30.60
2022-08-26T09:56:18.052Z,30.74
2022-08-26T09:58:50.151Z,30.68
2022-08-26T10:01:32.209Z,30.49
2022-08-26T10:04:10.947Z,30.42
2022-08-26T10:06:59.271Z,30.39
2022-08-26T10:09:31.487Z,30.32
2022-08-26T10:12:06.749Z,30.40
2022-08-26T10:14:48.922Z,30.56
2022-08-26T10:17:32.730Z,30.62
2022-08-26T10:20:22.653Z,30.46
2022-08-26T10:23:02.393Z,30.71
2022-08-26T10:25:37.426Z,30.76
2022-08-26T10:28:14.729Z,30.78
2022-08-26T10:30:49.799Z,30.89
2022-08-26T10:33:20.078Z,31.03
2022-08-26T10:35:54.306Z,30.77
2022-08-26T10:38:32.157Z,30.94
2022-08-26T10:41:10.335Z,30.97
2022-08-26T10:43:45.705Z,30.78
2022-08-26T10:46:27.312Z,31.03
2022-08-26T10:49:01.047Z,31.19
2022-08-26T10:51:38.740Z,31.37
2022-08-26T10:54:18.226Z,31.52
2022-08-26T10:56:58.172Z,31.41
2022-08-26T10:59:43.676Z,31.45
2022-08-26T11:02:24.708Z,31.51
2022-08-26T11:05:00.050Z,31.43
2022-08-26T11:07:39.375Z,31.81
2022-08-26T11:10:34.667Z,31.36
2022-08-26T11:13:08.331Z,31.77
2022-08-26T11:16:01.522Z,31.83
2022-08-26T11:18:56.113Z,31.77
2022-08-26T11:21:54.494Z,31.51
2022-08-26T11:24:54.253Z,31.31
2022-08-26T11:27:56.074Z,31.17
2022-08-26T11:30:55.485Z,31.13
2022-08-26T11:34:01.406Z,30.86
2022-08-26T11:36:42.802Z,30.93
2022-08-26T11:39:21.560Z,30.90
2022-08-26T11:41:53.836Z,30.76
2022-08-26T11:44:25.621Z,30.76
2022-08-26T11:47:01.195Z,30.62
2022-08-26T11:49:33.322Z,30.48
2022-08-26T11:52:22.140Z,29.77
2022-08-26T11:55:06.632Z,29.56
2022-08-26T11:57:38.892Z,28.58
2022-08-26T12:00:12.546Z,28.00
2022-08-26T12:02:46.970Z,27.69
2022-08-26T12:05:21.692Z,27.83
2022-08-26T12:07:54.866Z,27.86
2022-08-26T12:10:31.940Z,27.54
2022-08-26T12:13:03.123Z,27.43
2022-08-26T12:15:34.972Z,26.82
2022-08-26T12:18:28.899Z,26.53
2022-08-26T12:21:02.173Z,26.53
2022-08-26T12:23:43.399Z,26.62
2022-08-26T12:26:22.576Z,26.65
2022-08-26T12:28:57.601Z,25.51
2022-08-26T12:31:34.079Z,23.33
2022-08-26T12:34:17.678Z,23.23
2022-08-26T12:36:50.390Z,23.42
2022-08-26T12:39:29.402Z,23.76
2022-08-26T12:42:01.138Z,24.08
2022-08-26T12:44:39.026Z,24.32
2022-08-26T12:47:12.096Z,24.19
2022-08-26T12:49:47.983Z,24.23
2022-08-26T12:52:30.108Z,24.47
2022-08-26T12:55:03.015Z,24.84
2022-08-26T12:57:36.290Z,25.03
2022-08-26T13:00:42.049Z,24.88
2022-08-26T13:03:34.171Z,25.26
2022-08-26T13:06:31.587Z,24.69
2022-08-26T13:09:05.661Z,24.27
2022-08-26T13:11:37.999Z,24.24
2022-08-26T13:14:11.311Z,24.12
2022-08-26T13:16:43.012Z,23.88
2022-08-26T13:19:15.549Z,23.83
2022-08-26T13:21:53.877Z,23.23
2022-08-26T13:24:28.728Z,23.15
2022-08-26T13:26:58.727Z,23.15
2022-08-26T13:29:28.634Z,23.28
2022-08-26T13:31:59.555Z,23.38
2022-08-26T13:34:29.845Z,23.50
2022-08-26T13:37:02.382Z,23.45
2022-08-26T13:39:32.033Z,23.39
2022-08-26T13:42:01.931Z,23.36
2022-08-26T13:44:32.616Z,23.35
2022-08-26T13:47:02.588Z,23.44
2022-08-26T13:49:33.241Z,23.52
2022-08-26T13:52:06.933Z,23.82
2022-08-26T13:54:36.850Z,23.91
2022-08-26T13:57:06.950Z,23.93
2022-08-26T13:59:36.677Z,23.87
2022-08-26T14:02:07.878Z,23.98
2022-08-26T14:04:39.985Z,24.03
2022-08-26T14:07:16.870Z,24.19
2022-08-26T14:09:47.510Z,24.18
2022-08-26T14:12:19.659Z,24.43
2022-08-26T14:14:50.377Z,24.45
2022-08-26T14:17:23.597Z,24.67
2022-08-26T14:19:53.703Z,24.61
2022-08-26T14:22:27.004Z,24.90
2022-08-26T14:24:58.641Z,25.01
2022-08-26T14:27:28.476Z,24.68
2022-08-26T14:29:59.494Z,25.41
2022-08-26T14:32:32.228Z,25.80
2022-08-26T14:35:01.901Z,25.67
2022-08-26T14:37:34.583Z,25.58
2022-08-26T14:40:05.943Z,25.46
2022-08-26T14:42:35.914Z,25.52
2022-08-26T14:45:11.436Z,25.43
2022-08-26T14:47:41.112Z,25.48
2022-08-26T14:50:12.631Z,25.56
2022-08-26T14:52:59.332Z,25.71
2022-08-26T14:55:29.364Z,25.64
2022-08-26T14:57:59.023Z,25.63
2022-08-26T15:00:29.127Z,25.63
2022-08-26T15:02:58.953Z,25.52
2022-08-26T15:05:28.892Z,25.53
2022-08-26T15:08:02.685Z,25.48
2022-08-26T15:10:33.449Z,25.47
2022-08-26T15:13:05.039Z,25.37
2022-08-26T15:15:35.699Z,25.18
2022-08-26T15:18:06.917Z,25.02
2022-08-26T15:20:37.609Z,25.06
2022-08-26T15:23:11.198Z,25.11
2022-08-26T15:25:41.056Z,24.92
2022-08-26T15:28:11.803Z,25.15
2022-08-26T15:30:43.142Z,25.12
2022-08-26T15:33:15.285Z,25.13
2022-08-26T15:35:46.540Z,25.15
2022-08-26T15:38:18.822Z,25.15
2022-08-26T15:40:48.447Z,24.90
2022-08-26T15:43:28.169Z,24.60
2022-08-26T15:45:58.769Z,24.90
2022-08-26T15:48:29.259Z,24.90
2022-08-26T15:51:01.863Z,24.86
2022-08-26T15:53:36.767Z,25.02
2022-08-26T15:56:06.670Z,25.09
2022-08-26T15:58:37.896Z,24.92
2022-08-26T16:01:07.928Z,24.72
2022-08-26T16:03:37.831Z,24.52
2022-08-26T16:06:08.223Z,24.47
2022-08-26T16:08:42.008Z,24.37
2022-08-26T16:11:11.802Z,24.03
2022-08-26T16:13:41.475Z,24.00
2022-08-26T16:16:11.267Z,24.02
2022-08-26T16:18:42.286Z,23.88
2022-08-26T16:21:14.126Z,24.01
2022-08-26T16:23:47.822Z,24.09
2022-08-26T16:26:20.715Z,24.06
2022-08-26T16:28:50.388Z,24.20
2022-08-26T16:31:21.245Z,24.31
2022-08-26T16:33:51.448Z,24.32
2022-08-26T16:36:21.350Z,24.49
2022-08-26T16:38:56.531Z,24.43
2022-08-26T16:41:28.016Z,24.63
2022-08-26T16:43:58.683Z,24.58
2022-08-26T16:46:31.552Z,24.73
2022-08-26T16:49:03.967Z,24.68
2022-08-26T16:51:37.822Z,24.80
2022-08-26T16:54:11.332Z,24.83
2022-08-26T16:56:41.633Z,24.65
2022-08-26T16:59:13.549Z,24.72
2022-08-26T17:01:43.233Z,24.67
2022-08-26T17:04:13.905Z,24.55
2022-08-26T17:06:43.695Z,24.53
2022-08-26T17:09:17.128Z,24.53
2022-08-26T17:11:47.832Z,24.17
2022-08-26T17:14:17.484Z,24.38
2022-08-26T17:16:51.133Z,24.38
2022-08-26T17:19:21.710Z,24.19
2022-08-26T17:21:52.327Z,24.30
2022-08-26T17:24:24.554Z,24.24
2022-08-26T17:26:55.629Z,24.30
2022-08-26T17:29:26.524Z,24.35
2022-08-26T17:31:56.435Z,24.14
2022-08-26T17:34:26.599Z,24.26
2022-08-26T17:36:57.492Z,24.32
2022-08-26T17:39:29.651Z,24.33
2022-08-26T17:42:06.074Z,24.34
2022-08-26T17:44:36.737Z,24.19
2022-08-26T17:47:08.316Z,24.19
2022-08-26T17:49:39.031Z,24.25
2022-08-26T17:52:11.668Z,24.19
2022-08-26T17:54:44.159Z,24.13
2022-08-26T17:57:13.793Z,23.92
2022-08-26T17:59:43.609Z,23.95
2022-08-26T18:02:13.240Z,24.14
2022-08-26T18:04:43.839Z,25.00
2022-08-26T18:07:13.884Z,24.61
2022-08-26T18:09:46.423Z,23.96
2022-08-26T18:12:17.839Z,24.28
2022-08-26T18:14:48.503Z,24.25
2022-08-26T18:17:19.399Z,24.28
2022-08-26T18:19:50.181Z,24.25
2022-08-26T18:22:21.885Z,24.23
2022-08-26T18:24:59.230Z,24.29
2022-08-26T18:27:30.197Z,24.20
2022-08-26T18:30:00.062Z,24.15
2022-08-26T18:32:31.652Z,24.13
2022-08-26T18:35:02.451Z,24.08
2022-08-26T18:37:34.231Z,24.07
2022-08-26T18:40:07.295Z,23.92
2022-08-26T18:42:37.506Z,23.95
2022-08-26T18:45:08.853Z,24.00
2022-08-26T18:47:39.534Z,23.90
2022-08-26T18:50:11.675Z,23.82
2022-08-26T18:52:42.273Z,23.72
2022-08-26T18:55:14.444Z,23.73
2022-08-26T18:57:47.220Z,23.75
2022-08-26T19:00:17.770Z,24.11
2022-08-26T19:02:51.902Z,23.89
2022-08-26T19:05:25.536Z,23.87
2022-08-26T19:07:57.179Z,23.86
2022-08-26T19:10:32.826Z,23.91
2022-08-26T19:13:03.653Z,23.78
2022-08-26T19:15:40.346Z,23.76
2022-08-26T19:18:11.382Z,23.71
2022-08-26T19:20:46.416Z,23.73
2022-08-26T19:23:31.299Z,23.66
2022-08-26T19:26:09.019Z,23.54
2022-08-26T19:28:42.888Z,23.57
2022-08-26T19:31:15.598Z,23.59
2022-08-26T19:33:46.634Z,23.50
2022-08-26T19:36:18.573Z,23.36
2022-08-26T19:38:51.148Z,23.28
2022-08-26T19:41:36.802Z,23.29
2022-08-26T19:44:12.948Z,23.44
2022-08-26T19:46:44.533Z,23.44
2022-08-26T19:49:14.140Z,23.38
2022-08-26T19:51:43.755Z,23.37
2022-08-26T19:54:14.382Z,23.28
2022-08-26T19:56:49.597Z,23.19
2022-08-26T19:59:20.039Z,23.06
2022-08-26T20:02:00.888Z,22.92
2022-08-26T20:04:31.244Z,22.81
2022-08-26T20:07:01.998Z,22.86
2022-08-26T20:09:34.038Z,22.89
2022-08-26T20:12:09.593Z,22.70
2022-08-26T20:14:39.451Z,22.91
2022-08-26T20:17:09.442Z,22.92
2022-08-26T20:19:52.882Z,22.90
2022-08-26T20:22:23.461Z,22.90
2022-08-26T20:24:54.455Z,22.86
2022-08-26T20:27:35.555Z,22.92
2022-08-26T20:30:10.438Z,22.88
2022-08-26T20:32:42.650Z,22.92
2022-08-26T20:35:14.904Z,22.79
2022-08-26T20:37:45.446Z,22.84
2022-08-26T20:40:17.493Z,22.91
2022-08-26T20:42:49.659Z,22.96
2022-08-26T20:45:19.478Z,22.95
2022-08-26T20:47:50.338Z,23.30
2022-08-26T20:50:21.065Z,22.68
2022-08-26T20:52:50.624Z,22.43
2022-08-26T20:55:20.268Z,22.41
2022-08-26T20:57:53.335Z,22.25
2022-08-26T21:00:27.088Z,22.34
2022-08-26T21:02:59.518Z,22.15
2022-08-26T21:05:29.492Z,22.32
2022-08-26T21:08:00.057Z,22.24
2022-08-26T21:10:31.486Z,22.17
2022-08-26T21:13:03.754Z,22.32
2022-08-26T21:15:34.535Z,21.56
2022-08-26T21:18:04.206Z,22.29
2022-08-26T21:20:35.186Z,22.45
2022-08-26T21:23:06.034Z,22.60
2022-08-26T21:25:36.662Z,22.46
2022-08-26T21:28:10.121Z,22.59
2022-08-26T21:30:41.672Z,22.43
2022-08-26T21:33:12.419Z,22.51
2022-08-26T21:35:42.054Z,22.43
2022-08-26T21:38:11.789Z,22.37
2022-08-26T21:40:41.508Z,22.25
2022-08-26T21:43:25.967Z,22.39
2022-08-26T21:46:12.612Z,22.25
2022-08-26T21:48:47.696Z,22.12
2022-08-26T21:51:22.307Z,22.12
2022-08-26T21:53:52.973Z,22.09
2022-08-26T21:56:25.481Z,22.07
2022-08-26T21:58:59.657Z,22.09
2022-08-26T22:01:32.525Z,22.16
2022-08-26T22:04:03.839Z,22.16
2022-08-26T22:06:36.147Z,22.08
2022-08-26T22:09:06.963Z,21.79
2022-08-26T22:11:37.881Z,22.11
2022-08-26T22:14:10.108Z,22.06
2022-08-26T22:16:39.768Z,22.08
2022-08-26T22:19:13.674Z,22.07
2022-08-26T22:21:46.885Z,22.10
2022-08-26T22:24:16.426Z,22.11
2022-08-26T22:26:46.126Z,22.12
2022-08-26T22:29:18.316Z,22.24
2022-08-26T22:31:48.402Z,22.21
2022-08-26T22:34:20.729Z,22.23
2022-08-26T22:36:51.891Z,22.17
2022-08-26T22:39:24.585Z,22.09
2022-08-26T22:41:55.263Z,22.11
2022-08-26T22:44:27.432Z,22.20
2022-08-26T22:46:57.036Z,22.34
2022-08-26T22:49:27.019Z,22.25
2022-08-26T22:51:56.780Z,22.31
2022-08-26T22:54:26.543Z,22.32
2022-08-26T22:56:56.064Z,22.17
2022-08-26T22:59:28.197Z,22.19
2022-08-26T23:01:57.739Z,22.13
2022-08-26T23:04:27.307Z,22.13
2022-08-26T23:06:57.001Z,22.26
2022-08-26T23:09:26.578Z,22.17
2022-08-26T23:11:56.605Z,22.32
2022-08-26T23:14:29.119Z,22.26
2022-08-26T23:16:58.804Z,21.99
2022-08-26T23:19:28.430Z,22.04
2022-08-26T23:21:58.126Z,22.02
2022-08-26T23:24:27.687Z,21.90
2022-08-26T23:26:57.253Z,21.78
2022-08-26T23:29:30.279Z,21.73
2022-08-26T23:32:00.338Z,21.63
2022-08-26T23:34:42.658Z,21.57
2022-08-26T23:37:12.319Z,21.60
2022-08-26T23:39:41.934Z,21.62
2022-08-26T23:42:12.458Z,21.63
2022-08-26T23:44:44.722Z,21.61
2022-08-26T23:47:15.571Z,21.57
2022-08-26T23:49:45.317Z,21.51
2022-08-26T23:52:27.432Z,21.51
2022-08-26T23:54:57.265Z,21.51
2022-08-26T23:57:28.289Z,21.54
